Time;durP1;ratioP1;P1;durP2;ratioP2;P2;SDS_P1;SDS_P2;PMS_P1;PMS_P2;Temp;Humidity;BMP_temperature;BMP_pressure;BME280_temperature;BME280_humidity;BME280_pressure;Samples;Min_cycle;Max_cycle;Signal;HPM_P1;HPM_P2
2022/10/09 00:17:25;;;;;;;4.93;1.60;;;;;;;;;;5681651;22;15063384;-92
2022/10/09 00:20:29;;;;;;;2.78;1.20;;;;;;;;;;6346222;22;20444;-93
2022/10/09 00:23:36;;;;;;;2.25;1.20;;;;;;;;;;6346318;22;20041;-92
2022/10/09 00:26:29;;;;;;;7.43;1.17;;;;;;;;;;6347668;22;20063;-92
2022/10/09 00:29:22;;;;;;;7.10;1.30;;;;;;;;;;6346440;22;20029;-92
2022/10/09 00:32:23;;;;;;;1.85;1.23;;;;;;;;;;6346511;22;20025;-92
2022/10/09 00:41:57;;;;;;;;;;;;;;;;;;;;;
2022/10/09 00:45:10;;;;;;;4.20;1.40;;;;;;;;;;6347978;22;20013;-92
2022/10/09 00:48:24;;;;;;;4.15;1.60;;;;;;;;;;6346455;22;20025;-93
2022/10/09 00:51:19;;;;;;;;;;;;;;;;;;;;;
2022/10/09 00:54:09;;;;;;;2.45;1.48;;;;;;;;;;6347507;22;20353;-93
2022/10/09 00:57:12;;;;;;;2.67;1.63;;;;;;;;;;6346631;22;20091;-92
2022/10/09 01:00:15;;;;;;;2.60;1.40;;;;;;;;;;6327031;22;20506;-93
2022/10/09 01:06:28;;;;;;;;;;;;;;;;;;;;;
2022/10/09 01:09:31;;;;;;;;;;;;;;;;;;;;;
2022/10/09 01:12:32;;;;;;;4.20;1.88;;;;;;;;;;6339839;22;20009;-93
2022/10/09 01:15:33;;;;;;;2.42;1.67;;;;;;;;;;6338892;22;20026;-93
2022/10/09 01:18:28;;;;;;;;;;;;;;;;;;;;;
2022/10/09 01:21:39;;;;;;;2.22;1.48;;;;;;;;;;6339746;22;20014;-93
2022/10/09 01:27:44;;;;;;;3.70;1.80;;;;;;;;;;6339967;22;20071;-89
2022/10/09 01:30:30;;;;;;;4.15;1.30;;;;;;;;;;6337725;22;20018;-87
2022/10/09 01:33:16;;;;;;;2.45;1.58;;;;;;;;;;6337888;22;20014;-87
2022/10/09 01:36:01;;;;;;;2.75;1.30;;;;;;;;;;6338403;22;20071;-87
2022/10/09 01:38:46;;;;;;;3.50;1.73;;;;;;;;;;6338103;22;20067;-87
2022/10/09 01:41:31;;;;;;;4.13;1.88;;;;;;;;;;6339018;22;20345;-88
2022/10/09 01:44:16;;;;;;;2.30;1.40;;;;;;;;;;6337730;22;20017;-87
2022/10/09 01:50:19;;;;;;;2.63;1.60;;;;;;;;;;5090111;28;20475;-87
2022/10/09 01:53:06;;;;;;;3.45;1.40;;;;;;;;;;5071193;28;20035;-87
2022/10/09 01:55:57;;;;;;;2.15;1.30;;;;;;;;;;5089937;28;20063;-87
2022/10/09 01:58:46;;;;;;;2.20;1.27;;;;;;;;;;5089723;28;20115;-87
2022/10/09 02:01:33;;;;;;;5.80;1.60;;;;;;;;;;5089457;28;20086;-88
2022/10/09 02:04:18;;;;;;;4.47;1.83;;;;;;;;;;5073925;28;20035;-88
2022/10/09 02:07:04;;;;;;;3.83;1.55;;;;;;;;;;5088765;28;20515;-87
2022/10/09 02:09:49;;;;;;;2.40;1.55;;;;;;;;;;5089695;28;20046;-87
2022/10/09 02:12:36;;;;;;;7.30;2.05;;;;;;;;;;5073918;28;20043;-87
2022/10/09 02:15:23;;;;;;;3.92;1.73;;;;;;;;;;5089188;28;20515;-88
2022/10/09 02:18:11;;;;;;;10.15;2.03;;;;;;;;;;5089471;28;20046;-87
2022/10/09 02:20:59;;;;;;;2.63;1.50;;;;;;;;;;5088464;28;20067;-87
2022/10/09 02:23:44;;;;;;;2.67;1.50;;;;;;;;;;5088718;28;20077;-87
2022/10/09 02:26:29;;;;;;;6.05;1.55;;;;;;;;;;5088858;28;20078;-87
2022/10/09 02:29:14;;;;;;;2.50;1.48;;;;;;;;;;5089439;28;20411;-87
2022/10/09 02:31:59;;;;;;;5.03;1.75;;;;;;;;;;5066241;28;20071;-87
2022/10/09 02:34:44;;;;;;;5.07;1.80;;;;;;;;;;5088789;28;20042;-87
2022/10/09 02:37:28;;;;;;;3.08;1.73;;;;;;;;;;5076801;28;20412;-87
2022/10/09 02:40:13;;;;;;;4.22;1.40;;;;;;;;;;5101864;28;20538;-88
2022/10/09 02:42:57;;;;;;;4.05;1.90;;;;;;;;;;5073763;28;20127;-87
2022/10/09 02:45:42;;;;;;;2.60;1.88;;;;;;;;;;5088624;28;20051;-87
2022/10/09 02:48:27;;;;;;;4.47;2.42;;;;;;;;;;5087253;28;20472;-87
2022/10/09 02:51:11;;;;;;;7.30;2.70;;;;;;;;;;5087953;28;20113;-87
2022/10/09 02:53:58;;;;;;;7.68;2.00;;;;;;;;;;5073549;28;20038;-87
2022/10/09 02:56:42;;;;;;;8.48;2.55;;;;;;;;;;5087257;28;20043;-87
2022/10/09 02:59:27;;;;;;;3.45;1.77;;;;;;;;;;5086094;28;20043;-88
2022/10/09 03:02:12;;;;;;;4.88;1.83;;;;;;;;;;5075029;28;20119;-87
2022/10/09 03:04:56;;;;;;;2.42;1.60;;;;;;;;;;5074145;28;20043;-88
2022/10/09 03:07:41;;;;;;;4.63;2.28;;;;;;;;;;5059603;28;20082;-88
2022/10/09 03:10:26;;;;;;;4.20;2.33;;;;;;;;;;5074475;28;20051;-88
2022/10/09 03:13:10;;;;;;;2.88;1.80;;;;;;;;;;5074259;28;20036;-87
2022/10/09 03:16:01;;;;;;;6.03;2.42;;;;;;;;;;5074849;28;20036;-87
2022/10/09 03:18:46;;;;;;;4.07;2.35;;;;;;;;;;5074274;28;20067;-88
2022/10/09 03:21:30;;;;;;;3.85;2.33;;;;;;;;;;5059450;28;20535;-87
2022/10/09 03:24:15;;;;;;;4.05;2.13;;;;;;;;;;5074730;28;20041;-87
2022/10/09 03:27:00;;;;;;;3.88;2.50;;;;;;;;;;5074733;28;20086;-88
2022/10/09 03:29:44;;;;;;;6.30;2.03;;;;;;;;;;5059591;28;20035;-87
2022/10/09 03:32:29;;;;;;;7.47;2.45;;;;;;;;;;5074525;28;20094;-88
2022/10/09 03:35:13;;;;;;;4.72;2.33;;;;;;;;;;5074136;28;20036;-88
2022/10/09 03:37:58;;;;;;;5.50;2.50;;;;;;;;;;5060506;28;20409;-87
2022/10/09 03:40:43;;;;;;;4.05;2.00;;;;;;;;;;5074421;28;20044;-87
2022/10/09 03:43:28;;;;;;;4.20;2.55;;;;;;;;;;5073227;28;20078;-86
2022/10/09 03:46:13;;;;;;;3.65;2.22;;;;;;;;;;5059781;28;20405;-88
2022/10/09 03:48:57;;;;;;;4.55;2.20;;;;;;;;;;5073348;28;20131;-87
2022/10/09 03:51:42;;;;;;;2.53;1.67;;;;;;;;;;5058652;28;20039;-88
2022/10/09 03:54:26;;;;;;;3.85;2.40;;;;;;;;;;5059219;28;20086;-87
2022/10/09 03:57:11;;;;;;;3.90;2.25;;;;;;;;;;5073117;28;20035;-88
2022/10/09 03:59:55;;;;;;;5.30;2.58;;;;;;;;;;5073072;28;20496;-88
2022/10/09 04:02:40;;;;;;;3.58;2.13;;;;;;;;;;5072640;28;20102;-88
2022/10/09 04:05:24;;;;;;;10.80;2.92;;;;;;;;;;5072966;28;20039;-88
2022/10/09 04:08:09;;;;;;;3.83;2.13;;;;;;;;;;5058907;28;20098;-88
2022/10/09 04:10:57;;;;;;;3.40;2.13;;;;;;;;;;5072228;28;20436;-88
2022/10/09 04:13:42;;;;;;;5.45;2.80;;;;;;;;;;5073018;28;20035;-88
2022/10/09 04:16:27;;;;;;;3.78;2.33;;;;;;;;;;5074032;28;20562;-88
2022/10/09 04:19:11;;;;;;;5.93;2.67;;;;;;;;;;5072521;28;20036;-87
2022/10/09 04:21:56;;;;;;;3.50;1.98;;;;;;;;;;5072317;28;20047;-88
2022/10/09 04:24:40;;;;;;;3.47;2.05;;;;;;;;;;5072216;28;20078;-87
2022/10/09 04:27:25;;;;;;;5.10;2.05;;;;;;;;;;5072503;28;20043;-87
2022/10/09 04:30:09;;;;;;;3.95;2.15;;;;;;;;;;5073522;28;20538;-88
2022/10/09 04:32:54;;;;;;;3.38;1.83;;;;;;;;;;5072855;28;20460;-87
2022/10/09 04:35:43;;;;;;;3.05;1.80;;;;;;;;;;5072046;28;20094;-87
2022/10/09 04:38:27;;;;;;;3.85;2.20;;;;;;;;;;5041913;28;20495;-88
2022/10/09 04:41:12;;;;;;;3.90;2.50;;;;;;;;;;5072650;28;20043;-87
2022/10/09 04:43:56;;;;;;;3.78;1.95;;;;;;;;;;5057806;28;20043;-88
2022/10/09 04:46:41;;;;;;;3.10;2.00;;;;;;;;;;5072583;28;20041;-88
2022/10/09 04:49:26;;;;;;;8.18;2.13;;;;;;;;;;5072123;28;20466;-88
2022/10/09 04:52:10;;;;;;;9.70;2.92;;;;;;;;;;5071991;28;20117;-87
2022/10/09 04:54:55;;;;;;;6.10;2.95;;;;;;;;;;5072506;28;20094;-88
2022/10/09 04:57:40;;;;;;;2.88;1.80;;;;;;;;;;5057583;28;20043;-88
2022/10/09 05:00:24;;;;;;;4.07;2.10;;;;;;;;;;5071783;28;20044;-88
2022/10/09 05:03:09;;;;;;;4.53;2.28;;;;;;;;;;5073165;28;20043;-87
2022/10/09 05:05:54;;;;;;;3.22;1.90;;;;;;;;;;5071473;28;20077;-88
2022/10/09 05:08:38;;;;;;;3.88;2.03;;;;;;;;;;5057630;28;20044;-88
2022/10/09 05:11:24;;;;;;;7.03;2.40;;;;;;;;;;5072868;28;20439;-87
2022/10/09 05:14:09;;;;;;;4.20;2.35;;;;;;;;;;5072675;28;20071;-88
2022/10/09 05:16:56;;;;;;;6.70;3.72;;;;;;;;;;5071373;28;20102;-88
2022/10/09 05:19:40;;;;;;;12.25;4.65;;;;;;;;;;5071720;28;20400;-88
2022/10/09 05:22:25;;;;;;;18.38;5.80;;;;;;;;;;5071703;28;20047;-88
2022/10/09 05:25:09;;;;;;;16.17;4.95;;;;;;;;;;5071837;28;20385;-87
2022/10/09 05:27:54;;;;;;;10.73;5.55;;;;;;;;;;5071208;28;20078;-87
2022/10/09 05:30:42;;;;;;;9.75;5.20;;;;;;;;;;5072433;28;20043;-88
2022/10/09 05:33:28;;;;;;;12.07;4.78;;;;;;;;;;5072572;28;20487;-88
2022/10/09 05:36:12;;;;;;;10.38;5.07;;;;;;;;;;5071112;28;20035;-89
2022/10/09 05:38:57;;;;;;;7.35;3.70;;;;;;;;;;5059764;28;20048;-89
2022/10/09 05:41:42;;;;;;;11.13;3.97;;;;;;;;;;5072337;28;20408;-89
2022/10/09 05:44:26;;;;;;;6.15;3.38;;;;;;;;;;5071553;28;20431;-88
2022/10/09 05:47:12;;;;;;;6.22;2.88;;;;;;;;;;5071533;28;20051;-88
2022/10/09 05:49:57;;;;;;;8.70;3.17;;;;;;;;;;5057003;28;20083;-88
2022/10/09 05:52:41;;;;;;;3.83;2.20;;;;;;;;;;5071402;28;20043;-87
2022/10/09 05:55:26;;;;;;;4.55;2.00;;;;;;;;;;5071226;28;20043;-87
2022/10/09 05:58:10;;;;;;;3.88;2.10;;;;;;;;;;5071472;28;20043;-88
2022/10/09 06:00:59;;;;;;;5.03;2.67;;;;;;;;;;5056701;28;20043;-88
2022/10/09 06:03:48;;;;;;;3.67;1.95;;;;;;;;;;5072196;28;20511;-88
2022/10/09 06:06:35;;;;;;;5.20;2.00;;;;;;;;;;5071239;28;20040;-87
2022/10/09 06:09:21;;;;;;;4.72;2.00;;;;;;;;;;5071270;28;20115;-88
2022/10/09 06:12:06;;;;;;;6.32;2.60;;;;;;;;;;5071698;28;20484;-88
2022/10/09 06:14:51;;;;;;;3.88;2.20;;;;;;;;;;5071693;28;20453;-87
2022/10/09 06:17:35;;;;;;;4.70;2.33;;;;;;;;;;5071008;28;20031;-89
2022/10/09 06:20:20;;;;;;;3.85;2.15;;;;;;;;;;5071131;28;20542;-88
2022/10/09 06:23:04;;;;;;;4.13;2.25;;;;;;;;;;5070629;28;20071;-88
2022/10/09 06:25:53;;;;;;;8.60;2.03;;;;;;;;;;5070673;28;20054;-87
2022/10/09 06:28:38;;;;;;;4.57;2.63;;;;;;;;;;5057043;28;20048;-88
2022/10/09 06:31:24;;;;;;;4.70;2.60;;;;;;;;;;5071090;28;20094;-88
2022/10/09 06:34:10;;;;;;;6.53;2.35;;;;;;;;;;5071553;28;20516;-88
2022/10/09 06:36:54;;;;;;;4.30;2.33;;;;;;;;;;5068153;28;20143;-88
2022/10/09 06:39:39;;;;;;;4.32;2.45;;;;;;;;;;5069143;28;20089;-88
2022/10/09 06:42:23;;;;;;;4.43;1.75;;;;;;;;;;5075702;28;20535;-88
2022/10/09 06:45:08;;;;;;;5.97;2.45;;;;;;;;;;5074988;28;20075;-87
2022/10/09 06:47:53;;;;;;;5.90;2.20;;;;;;;;;;5058781;28;20075;-87
2022/10/09 06:50:38;;;;;;;5.78;2.42;;;;;;;;;;5074400;28;20043;-88
2022/10/09 06:53:23;;;;;;;3.35;2.45;;;;;;;;;;5074296;28;20086;-88
2022/10/09 06:56:07;;;;;;;4.25;2.50;;;;;;;;;;5073945;28;20412;-89
2022/10/09 06:58:52;;;;;;;4.93;2.60;;;;;;;;;;5073937;28;20078;-88
2022/10/09 07:01:37;;;;;;;4.65;2.42;;;;;;;;;;5074331;28;20044;-89
2022/10/09 07:04:21;;;;;;;3.28;2.13;;;;;;;;;;5074369;28;20079;-89
2022/10/09 07:07:06;;;;;;;3.60;2.33;;;;;;;;;;5073661;28;20038;-88
2022/10/09 07:09:52;;;;;;;4.65;2.45;;;;;;;;;;5075185;28;20042;-89
2022/10/09 07:12:37;;;;;;;3.05;2.45;;;;;;;;;;5074050;28;20495;-88
2022/10/09 07:15:22;;;;;;;3.95;2.58;;;;;;;;;;5060015;28;20039;-88
2022/10/09 07:18:06;;;;;;;5.85;2.63;;;;;;;;;;5073586;28;20038;-89
2022/10/09 07:20:51;;;;;;;2.90;2.00;;;;;;;;;;5074647;28;20039;-88
2022/10/09 07:23:36;;;;;;;7.68;2.78;;;;;;;;;;5074897;28;20036;-89
2022/10/09 07:26:22;;;;;;;3.58;2.42;;;;;;;;;;5073411;28;20097;-88
2022/10/09 07:29:07;;;;;;;4.15;2.65;;;;;;;;;;5074161;28;20507;-88
2022/10/09 07:31:52;;;;;;;5.05;2.38;;;;;;;;;;5074661;28;20074;-89
2022/10/09 07:34:37;;;;;;;6.50;2.35;;;;;;;;;;5074634;28;20115;-88
2022/10/09 07:37:21;;;;;;;4.70;2.63;;;;;;;;;;5064398;28;20117;-88
2022/10/09 07:40:06;;;;;;;6.78;2.00;;;;;;;;;;5071266;28;20044;-88
2022/10/09 07:42:51;;;;;;;3.83;1.83;;;;;;;;;;5059481;28;20056;-89
2022/10/09 07:45:35;;;;;;;2.95;1.83;;;;;;;;;;5074463;28;20404;-88
2022/10/09 07:48:20;;;;;;;5.43;1.70;;;;;;;;;;5073608;28;20071;-87
2022/10/09 07:51:07;;;;;;;5.97;2.08;;;;;;;;;;5074039;28;20055;-88
2022/10/09 07:53:52;;;;;;;3.05;1.83;;;;;;;;;;5073123;28;20393;-87
2022/10/09 07:56:37;;;;;;;3.75;1.85;;;;;;;;;;5074080;28;20035;-88
2022/10/09 07:59:22;;;;;;;3.45;2.20;;;;;;;;;;5073614;28;20075;-87
2022/10/09 08:02:07;;;;;;;5.47;1.65;;;;;;;;;;5072493;28;20048;-88
2022/10/09 08:04:52;;;;;;;4.05;1.77;;;;;;;;;;5058882;28;20122;-88
2022/10/09 08:07:37;;;;;;;3.78;2.03;;;;;;;;;;5072986;28;20062;-87
2022/10/09 08:10:21;;;;;;;6.90;2.05;;;;;;;;;;5073253;28;20119;-87
2022/10/09 08:13:05;;;;;;;5.97;2.15;;;;;;;;;;5073365;28;20070;-87
2022/10/09 08:15:50;;;;;;;3.95;1.85;;;;;;;;;;5072593;28;20036;-88
2022/10/09 08:18:35;;;;;;;6.22;1.83;;;;;;;;;;5073904;28;20052;-87
2022/10/09 08:21:19;;;;;;;10.23;2.03;;;;;;;;;;5072326;28;20103;-87
2022/10/09 08:24:04;;;;;;;4.82;1.80;;;;;;;;;;5073530;28;20085;-88
2022/10/09 08:26:48;;;;;;;2.90;1.45;;;;;;;;;;5072602;28;20070;-88
2022/10/09 08:29:33;;;;;;;4.93;1.92;;;;;;;;;;5072453;28;20483;-87
2022/10/09 08:32:17;;;;;;;3.20;1.77;;;;;;;;;;5072229;28;20090;-88
2022/10/09 08:35:02;;;;;;;4.35;1.85;;;;;;;;;;5073464;28;20083;-87
2022/10/09 08:37:46;;;;;;;2.50;1.40;;;;;;;;;;5059183;28;20505;-87
2022/10/09 08:40:50;;;;;;;3.70;1.40;;;;;;;;;;5061054;28;20039;-88
2022/10/09 08:43:38;;;;;;;5.35;1.75;;;;;;;;;;5072238;28;20442;-86
2022/10/09 08:46:29;;;;;;;8.35;1.75;;;;;;;;;;5071890;28;20460;-88
2022/10/09 08:49:20;;;;;;;3.90;2.30;;;;;;;;;;5051869;28;20148;-87
2022/10/09 08:52:14;;;;;;;4.28;1.70;;;;;;;;;;5072963;28;20035;-87
2022/10/09 08:55:00;;;;;;;4.72;2.00;;;;;;;;;;5071890;28;20070;-87
2022/10/09 08:57:47;;;;;;;3.72;1.65;;;;;;;;;;5071681;28;20051;-87
2022/10/09 09:00:39;;;;;;;4.22;1.58;;;;;;;;;;5072474;28;20031;-87
2022/10/09 09:03:24;;;;;;;6.03;1.48;;;;;;;;;;5071484;28;20098;-87
2022/10/09 09:06:14;;;;;;;2.92;1.48;;;;;;;;;;5072978;28;20122;-88
2022/10/09 09:09:05;;;;;;;3.85;1.65;;;;;;;;;;5071823;28;20043;-87
2022/10/09 09:11:50;;;;;;;4.95;1.48;;;;;;;;;;5072915;28;20185;-86
2022/10/09 09:14:38;;;;;;;5.50;1.88;;;;;;;;;;5072370;28;20032;-87
2022/10/09 09:17:29;;;;;;;3.67;1.40;;;;;;;;;;5072402;28;20071;-86
2022/10/09 09:20:14;;;;;;;3.15;1.25;;;;;;;;;;5071480;28;20401;-87
2022/10/09 09:23:00;;;;;;;4.05;1.52;;;;;;;;;;5073473;28;20047;-86
2022/10/09 09:25:45;;;;;;;5.75;1.83;;;;;;;;;;5074179;28;20086;-88
2022/10/09 09:28:32;;;;;;;4.95;1.35;;;;;;;;;;5072249;28;20047;-87
2022/10/09 09:31:22;;;;;;;3.92;1.27;;;;;;;;;;5072115;28;20035;-87
2022/10/09 09:34:10;;;;;;;4.65;1.55;;;;;;;;;;5071404;28;20043;-86
2022/10/09 09:36:56;;;;;;;3.92;1.45;;;;;;;;;;5066461;28;20103;-87
2022/10/09 09:39:41;;;;;;;7.03;1.67;;;;;;;;;;5067200;28;20083;-87
2022/10/09 09:42:27;;;;;;;6.07;1.73;;;;;;;;;;5071962;28;20044;-87
2022/10/09 09:45:19;;;;;;;5.78;1.75;;;;;;;;;;5071185;28;20078;-86
2022/10/09 09:48:09;;;;;;;3.95;1.60;;;;;;;;;;5072251;28;20124;-87
2022/10/09 09:50:54;;;;;;;6.50;1.73;;;;;;;;;;5072372;28;20130;-86
2022/10/09 09:54:06;;;;;;;4.03;1.80;;;16.20;99.90;;;;;;5071920;28;20035;-86
2022/10/09 09:56:52;;;;;;;2.05;1.48;;;;;;;;;;5061212;28;20052;-87
2022/10/09 09:59:41;;;;;;;5.65;1.50;;;;;;;;;;5071856;28;20101;-86
2022/10/09 10:02:29;;;;;;;6.20;1.77;;;;;;;;;;5070920;28;20036;-87
2022/10/09 10:05:20;;;;;;;3.55;1.30;;;;;;;;;;5071223;28;20043;-86
2022/10/09 10:08:25;;;;;;;2.72;1.52;;;;;;;;;;5072143;28;20082;-87
2022/10/09 10:11:16;;;;;;;5.35;1.70;;;;;;;;;;5074857;28;20655;-87
2022/10/09 10:14:05;;;;;;;2.28;1.40;;;;;;;;;;5075121;28;20090;-87
2022/10/09 10:16:51;;;;;;;3.72;1.50;;;;;;;;;;5077213;28;20112;-85
2022/10/09 10:19:37;;;;;;;6.75;1.42;;;;;;;;;;5075631;28;20039;-87
2022/10/09 10:22:23;;;;;;;7.47;1.27;;;;;;;;;;5074535;28;20047;-87
2022/10/09 10:25:14;;;;;;;3.28;1.48;;;;;;;;;;5075005;28;20461;-86
2022/10/09 10:28:03;;;;;;;3.15;1.60;;;;;;;;;;5074896;28;20496;-87
2022/10/09 10:30:49;;;;;;;2.72;1.38;;;;;;;;;;5074620;28;20052;-87
2022/10/09 10:33:37;;;;;;;2.08;1.20;;;;;;;;;;5075494;28;20056;-87
2022/10/09 10:36:23;;;;;;;3.50;1.25;;;;;;;;;;5073617;28;20120;-87
2022/10/09 10:39:12;;;;;;;6.07;1.52;;;;;;;;;;5065028;28;20115;-86
2022/10/09 10:42:01;;;;;;;2.95;1.08;;;;;;;;;;5075436;28;20082;-87
2022/10/09 10:44:52;;;;;;;4.35;1.20;;;;;;;;;;5075023;28;20039;-87
2022/10/09 10:47:40;;;;;;;5.18;1.13;;;;;;;;;;5075139;28;20474;-87
2022/10/09 10:50:28;;;;;;;2.47;1.02;;;;;;;;;;5074930;28;20047;-86
2022/10/09 10:53:21;;;;;;;6.05;0.98;;;;;;;;;;5075290;28;20094;-87
2022/10/09 10:56:09;;;;;;;2.72;1.17;;;;;;;;;;5074612;28;20035;-86
2022/10/09 10:59:08;;;;;;;0.98;0.73;;;;;;;;;;5075098;28;20047;-87
2022/10/09 11:02:02;;;;;;;1.17;0.82;;;;;;;;;;5074158;28;20046;-86
2022/10/09 11:04:59;;;;;;;6.35;0.90;;;;;;;;;;5074433;28;20508;-86
2022/10/09 11:08:02;;;;;;;1.73;0.80;;;;;;;;;;5074848;28;20491;-87
2022/10/09 11:11:01;;;;;;;2.38;1.00;;;;;;;;;;5074638;28;20043;-87
2022/10/09 11:14:01;;;;;;;2.13;0.80;;;;;;;;;;5074532;28;20766;-87
2022/10/09 11:17:02;;;;;;;3.03;0.82;;;;;;;;;;5074679;28;20039;-86
2022/10/09 11:20:06;;;;;;;3.13;0.88;;;;;;;;;;5052535;28;20439;-87
2022/10/09 11:23:49;;;;;;;3.10;0.98;;;16.80;99.90;;;;;;5074374;28;20039;-87
2022/10/09 11:26:43;;;;;;;2.83;0.90;;;;;;;;;;5040098;28;20047;-87
2022/10/09 11:29:41;;;;;;;1.15;0.80;;;;;;;;;;5074821;28;20040;-87
2022/10/09 11:32:26;;;;;;;1.92;0.82;;;;;;;;;;5074650;28;20102;-88
2022/10/09 11:35:18;;;;;;;1.85;0.80;;;;;;;;;;5073666;28;20035;-87
2022/10/09 11:38:04;;;;;;;3.25;0.98;;;;;;;;;;5059230;28;20504;-87
2022/10/09 11:40:49;;;;;;;2.15;0.90;;;;;;;;;;5073210;28;20086;-86
2022/10/09 11:43:39;;;;;;;2.97;0.95;;;;;;;;;;5073158;28;20106;-87
2022/10/09 11:46:32;;;;;;;3.97;0.88;;;;;;;;;;5073550;28;20039;-87
2022/10/09 11:49:25;;;;;;;1.80;0.90;;;;;;;;;;5074672;28;20444;-87
2022/10/09 11:52:24;;;;;;;2.78;1.15;;;;;;;;;;5074161;28;20089;-86
2022/10/09 11:55:18;;;;;;;9.10;1.45;;;;;;;;;;5074351;28;20525;-87
2022/10/09 11:58:22;;;;;;;1.52;0.80;;;17.20;99.90;;;;;;5074203;28;20039;-86
2022/10/09 12:01:12;;;;;;;2.40;1.10;;;;;;;;;;5052498;28;20650;-87
2022/10/09 12:04:01;;;;;;;2.25;1.10;;;;;;;;;;5072621;28;20086;-86
2022/10/09 12:06:47;;;;;;;3.47;1.20;;;;;;;;;;5072783;28;20085;-87
2022/10/09 12:09:36;;;;;;;1.45;0.77;;;;;;;;;;5051071;28;20496;-86
2022/10/09 12:12:22;;;;;;;3.17;1.17;;;;;;;;;;5073796;28;20463;-86
2022/10/09 12:15:27;;;;;;;1.67;0.90;;;;;;;;;;5073105;28;20039;-87
2022/10/09 12:18:15;;;;;;;5.65;1.20;;;;;;;;;;5073755;28;20558;-86
2022/10/09 12:21:01;;;;;;;2.42;1.00;;;;;;;;;;5072233;28;20416;-86
2022/10/09 12:23:46;;;;;;;4.03;1.38;;;;;;;;;;5072406;28;20504;-86
2022/10/09 12:26:32;;;;;;;1.80;1.00;;;;;;;;;;5072706;28;20071;-87
2022/10/09 12:29:37;;;;;;;2.10;0.80;;;;;;;;;;5058406;28;20526;-87
2022/10/09 12:32:26;;;;;;;4.47;1.10;;;;;;;;;;5070551;28;20046;-87
2022/10/09 12:35:17;;;;;;;4.70;1.00;;;;;;;;;;5073413;28;20496;-87
2022/10/09 12:38:02;;;;;;;3.45;1.05;;;;;;;;;;5057593;28;20508;-86
2022/10/09 12:40:47;;;;;;;1.88;1.10;;;;;;;;;;5071955;28;20183;-87
2022/10/09 12:43:32;;;;;;;2.90;1.13;;;;;;;;;;5058203;28;20086;-87
2022/10/09 12:46:28;;;;;;;5.45;1.02;;;;;;;;;;5073259;28;20741;-87
2022/10/09 12:49:18;;;;;;;6.25;1.50;;;;;;;;;;5041339;28;20146;-86
2022/10/09 12:52:03;;;;;;;5.78;1.85;;;;;;;;;;5071217;28;20409;-86
2022/10/09 12:54:47;;;;;;;6.38;1.77;;;;;;;;;;5071724;28;20048;-87
2022/10/09 12:57:32;;;;;;;5.07;1.45;;;;;;;;;;5072238;28;20073;-87
2022/10/09 13:00:17;;;;;;;4.10;1.35;;;;;;;;;;5071794;28;20058;-86
2022/10/09 13:03:01;;;;;;;4.15;1.38;;;;;;;;;;5071565;28;20119;-87
2022/10/09 13:05:46;;;;;;;6.10;1.30;;;;;;;;;;5057297;28;20401;-87
2022/10/09 13:08:32;;;;;;;4.25;1.45;;;;;;;;;;5071907;28;20042;-86
2022/10/09 13:11:19;;;;;;;3.08;1.27;;;;;;;;;;5072867;28;20035;-86
2022/10/09 13:14:04;;;;;;;3.28;1.38;;;;;;;;;;5072434;28;20032;-87
2022/10/09 13:16:49;;;;;;;2.97;1.33;;;;;;;;;;5072019;28;20047;-87
2022/10/09 13:19:34;;;;;;;3.60;1.38;;;;;;;;;;5072867;28;20043;-87
2022/10/09 13:22:23;;;;;;;1.98;1.20;;;;;;;;;;5071547;28;20044;-87
2022/10/09 13:25:08;;;;;;;5.75;1.42;;;;;;;;;;5072219;28;20075;-87
2022/10/09 13:27:53;;;;;;;2.53;1.55;;;;;;;;;;5072164;28;20054;-86
2022/10/09 13:30:38;;;;;;;4.70;1.50;;;;;;;;;;5071556;28;20039;-87
2022/10/09 13:33:22;;;;;;;5.20;1.50;;;;;;;;;;5072798;28;20489;-87
2022/10/09 13:36:07;;;;;;;4.70;1.30;;;;;;;;;;5072081;28;20151;-87
2022/10/09 13:38:51;;;;;;;5.28;1.42;;;;;;;;;;5048095;28;20226;-86
2022/10/09 13:41:36;;;;;;;3.22;1.50;;;;;;;;;;5071570;28;20401;-86
2022/10/09 13:44:21;;;;;;;6.22;1.58;;;;;;;;;;5071301;28;20102;-87
2022/10/09 13:47:05;;;;;;;4.85;2.45;;;;;;;;;;5070906;28;20067;-87
2022/10/09 13:49:50;;;;;;;7.82;1.70;;;;;;;;;;5070527;28;20558;-86
2022/10/09 13:52:34;;;;;;;4.45;2.20;;;;;;;;;;5071436;28;20102;-87
2022/10/09 13:55:19;;;;;;;2.60;1.02;;;;;;;;;;5071328;28;20063;-88
2022/10/09 13:58:03;;;;;;;4.85;1.58;;;;;;;;;;5071962;28;20520;-87
2022/10/09 14:00:49;;;;;;;3.67;1.27;;;;;;;;;;5072063;28;20098;-86
2022/10/09 14:03:33;;;;;;;8.80;1.58;;;;;;;;;;5071337;28;20032;-87
2022/10/09 14:06:18;;;;;;;2.38;1.23;;;;;;;;;;5057195;28;20043;-87
2022/10/09 14:09:05;;;;;;;2.20;1.10;;;;;;;;;;5070754;28;20043;-87
2022/10/09 14:11:50;;;;;;;5.63;1.73;;;;;;;;;;5071863;28;20131;-87
2022/10/09 14:14:37;;;;;;;5.88;1.15;;;;;;;;;;5071352;28;20032;-87
2022/10/09 14:17:21;;;;;;;2.65;1.10;;;;;;;;;;5072188;28;20495;-87
2022/10/09 14:20:06;;;;;;;8.07;1.52;;;;;;;;;;5070710;28;20048;-87
2022/10/09 14:22:51;;;;;;;5.28;1.25;;;;;;;;;;5071917;28;20120;-87
2022/10/09 14:25:36;;;;;;;1.83;1.00;;;;;;;;;;5057019;28;20120;-87
2022/10/09 14:28:20;;;;;;;7.97;1.25;;;;;;;;;;5072111;28;20115;-86
2022/10/09 14:31:06;;;;;;;2.58;0.80;;;;;;;;;;5056227;28;20086;-87
2022/10/09 14:33:54;;;;;;;2.97;1.10;;;;;;;;;;5071064;28;20385;-86
2022/10/09 14:36:40;;;;;;;7.45;1.30;;;;;;;;;;5067084;28;20040;-87
2022/10/09 14:39:24;;;;;;;3.28;1.20;;;;;;;;;;5063631;28;20063;-87
2022/10/09 14:42:10;;;;;;;3.13;1.10;;;;;;;;;;5070759;28;20087;-87
2022/10/09 14:44:54;;;;;;;2.67;1.00;;;;;;;;;;5070419;28;20075;-86
2022/10/09 14:47:39;;;;;;;3.60;1.40;;;;;;;;;;5071106;28;20082;-87
2022/10/09 14:50:24;;;;;;;3.35;1.25;;;;;;;;;;5072152;28;20091;-86
2022/10/09 14:53:09;;;;;;;4.40;1.35;;;;;;;;;;5056311;28;20040;-87
2022/10/09 14:55:53;;;;;;;2.30;1.20;;;;;;;;;;5057162;28;20121;-87
2022/10/09 14:58:38;;;;;;;5.55;1.42;;;;;;;;;;5074539;28;20458;-87
2022/10/09 15:01:23;;;;;;;7.22;1.67;;;;;;;;;;5074454;28;20066;-86
2022/10/09 15:04:08;;;;;;;3.72;1.23;;;;;;;;;;5074936;28;20110;-86
2022/10/09 15:06:53;;;;;;;4.32;1.23;;;;;;;;;;5075205;28;20115;-87
2022/10/09 15:09:38;;;;;;;2.55;1.13;;;;;;;;;;5060249;28;20066;-86
2022/10/09 15:12:22;;;;;;;4.35;1.35;;;;;;;;;;5074211;28;20385;-86
2022/10/09 15:15:07;;;;;;;2.97;1.50;;;;;;;;;;5074069;28;20499;-86
2022/10/09 15:17:51;;;;;;;5.53;1.27;;;;;;;;;;5074468;28;20405;-87
2022/10/09 15:20:36;;;;;;;3.30;1.40;;;;;;;;;;5075410;28;20047;-87
2022/10/09 15:23:21;;;;;;;4.68;1.40;;;;;;;;;;5072925;28;20044;-86
2022/10/09 15:26:06;;;;;;;3.08;1.20;;;;;;;;;;5067236;28;20040;-88
2022/10/09 15:28:51;;;;;;;5.90;1.65;;;;;;;;;;5054905;28;20109;-86
2022/10/09 15:31:37;;;;;;;4.82;1.20;;;;;;;;;;5053742;28;20032;-87
2022/10/09 15:34:22;;;;;;;3.30;1.10;;;;;;;;;;5057929;28;20537;-87
2022/10/09 15:37:07;;;;;;;5.57;1.40;;;;;;;;;;5049804;28;20044;-87
2022/10/09 15:39:51;;;;;;;2.70;1.08;;;;;;;;;;5069649;28;20047;-87
2022/10/09 15:42:36;;;;;;;1.65;1.05;;;;;;;;;;5074801;28;20094;-86
2022/10/09 15:45:21;;;;;;;2.35;1.02;;;;;;;;;;5073823;28;20035;-87
2022/10/09 15:48:06;;;;;;;2.90;1.00;;;;;;;;;;5074090;28;20063;-86
2022/10/09 15:50:52;;;;;;;2.92;1.33;;;;;;;;;;5072145;28;20047;-86
2022/10/09 15:53:36;;;;;;;2.17;0.90;;;;;;;;;;5071143;28;20108;-85
2022/10/09 15:56:22;;;;;;;4.38;1.20;;;;;;;;;;5070511;28;20039;-85
2022/10/09 15:59:20;;;;;;;;;;;;;;;;;;;;;
2022/10/09 16:02:05;;;;;;;3.45;1.08;;;;;;;;;;5068408;28;20035;-86
2022/10/09 16:04:49;;;;;;;2.78;1.08;;;;;;;;;;5053108;28;20032;-87
2022/10/09 16:07:34;;;;;;;7.25;1.17;;;;;;;;;;5052914;28;20040;-87
2022/10/09 16:10:18;;;;;;;3.58;1.30;;;;;;;;;;5052233;28;20062;-86
2022/10/09 16:13:03;;;;;;;6.30;1.50;;;;;;;;;;5049020;28;20466;-86
2022/10/09 16:15:48;;;;;;;2.47;1.00;;;;;;;;;;5046782;28;20284;-87
2022/10/09 16:18:32;;;;;;;2.00;1.00;;;;;;;;;;5052666;28;20087;-87
2022/10/09 16:21:21;;;;;;;1.90;1.08;;;;;;;;;;5053329;28;20039;-87
2022/10/09 16:24:05;;;;;;;3.28;1.52;;;;;;;;;;5049002;28;20083;-87
2022/10/09 16:26:50;;;;;;;6.85;1.63;;;;;;;;;;5052613;28;20040;-90
2022/10/09 16:29:34;;;;;;;3.70;1.20;;;;;;;;;;5052643;28;20082;-88
2022/10/09 16:32:19;;;;;;;5.53;1.42;;;;;;;;;;5047985;28;20048;-86
2022/10/09 16:35:04;;;;;;;8.65;1.10;;;;;;;;;;5066653;28;20075;-87
2022/10/09 16:37:51;;;;;;;2.45;1.17;;;;;;;;;;5049812;28;20036;-86
2022/10/09 16:40:41;;;;;;;2.70;1.20;;;;;;;;;;5061582;28;20067;-87
2022/10/09 16:43:26;;;;;;;2.97;1.20;;;;;;;;;;5071820;28;20090;-87
2022/10/09 16:46:17;;;;;;;2.50;1.10;;;;;;;;;;5071943;28;20059;-88
2022/10/09 16:49:02;;;;;;;5.07;1.10;;;;;;;;;;5071889;28;20093;-87
2022/10/09 16:51:47;;;;;;;3.35;1.00;;;;;;;;;;5072092;28;20048;-87
2022/10/09 16:54:31;;;;;;;3.30;1.15;;;;;;;;;;5071737;28;20039;-87
2022/10/09 16:57:16;;;;;;;5.25;1.20;;;;;;;;;;5071636;28;20549;-87
2022/10/09 17:00:02;;;;;;;2.95;1.13;;;;;;;;;;5071765;28;20079;-87
2022/10/09 17:02:47;;;;;;;4.70;1.30;;;;;;;;;;5072240;28;20035;-88
2022/10/09 17:05:31;;;;;;;5.90;1.33;;;;;;;;;;5057499;28;20086;-88
2022/10/09 17:08:18;;;;;;;5.28;1.65;;;;;;;;;;5051284;28;20044;-93
2022/10/09 17:11:05;;;;;;;2.42;1.20;;;;;;;;;;5037342;28;20111;-95
2022/10/09 17:13:50;;;;;;;4.05;1.38;;;;;;;;;;5051915;28;20164;-86
2022/10/09 17:16:36;;;;;;;3.28;1.40;;;;;;;;;;5074019;28;20043;-87
2022/10/09 17:19:21;;;;;;;4.50;1.60;;;;;;;;;;5051881;28;20044;-87
2022/10/09 17:22:05;;;;;;;6.10;1.90;;;;;;;;;;5052474;28;20071;-87